Time;durP1;ratioP1;P1;durP2;ratioP2;P2;SDS_P1;SDS_P2;PMS_P1;PMS_P2;Temp;Humidity;BMP_temperature;BMP_pressure;BME280_temperature;BME280_humidity;BME280_pressure;Samples;Min_cycle;Max_cycle;Signal;HPM_P1;HPM_P2
2022/03/13 00:01:56;;;;;;;152.93;41.50;;;;;;;-1.14;50.19;101264.34;4189363;28;21610;-63
2022/03/13 00:04:22;;;;;;;134.37;43.03;;;;;;;-1.16;50.86;101262.69;4188615;28;20245;-65
2022/03/13 00:06:49;;;;;;;171.53;48.60;;;;;;;-1.06;51.27;101253.63;4188071;28;20660;-63
2022/03/13 00:09:21;;;;;;;148.30;42.73;;;;;;;-1.02;50.35;101260.47;4188646;28;20701;-65
2022/03/13 00:11:51;;;;;;;140.90;42.57;;;;;;;-0.98;49.39;101258.63;4190598;28;20225;-64
2022/03/13 00:14:20;;;;;;;113.43;37.47;;;;;;;-1.00;48.82;101258.66;4192113;28;21054;-65
2022/03/13 00:16:47;;;;;;;114.13;37.03;;;;;;;-1.04;48.98;101256.22;4193682;28;20920;-64
2022/03/13 00:19:16;;;;;;;108.67;36.63;;;;;;;-1.27;49.69;101256.03;4223528;28;20232;-65
2022/03/13 00:21:45;;;;;;;112.80;36.70;;;;;;;-1.33;50.17;101253.63;4197532;28;20230;-65
2022/03/13 00:24:13;;;;;;;100.17;34.10;;;;;;;-1.37;49.77;101259.84;4197033;28;20240;-68
2022/03/13 00:26:40;;;;;;;91.17;30.10;;;;;;;-1.40;49.17;101265.19;4212021;28;21256;-64
2022/03/13 00:29:09;;;;;;;101.03;33.57;;;;;;;-1.37;49.02;101265.06;4197948;28;23251;-65
2022/03/13 00:31:35;;;;;;;106.67;35.43;;;;;;;-1.28;49.04;101251.72;4197427;28;20267;-65
2022/03/13 00:34:02;;;;;;;104.23;34.57;;;;;;;-1.21;48.74;101251.53;4193998;28;20244;-64
2022/03/13 00:36:29;;;;;;;96.53;32.77;;;;;;;-1.29;48.77;101259.59;4204613;28;20235;-65
2022/03/13 00:38:55;;;;;;;104.03;35.77;;;;;;;-1.29;48.88;101251.78;4189525;28;20708;-65
2022/03/13 00:41:22;;;;;;;107.27;34.30;;;;;;;-1.25;48.83;101252.53;4192021;28;20267;-63
2022/03/13 00:43:49;;;;;;;92.57;29.03;;;;;;;-1.33;49.00;101247.56;4193723;28;20810;-64
2022/03/13 00:46:15;;;;;;;91.00;32.10;;;;;;;-1.22;48.33;101242.84;4191877;28;20248;-64
2022/03/13 00:48:42;;;;;;;91.17;30.43;;;;;;;-1.16;48.34;101244.41;4198430;28;20275;-65
2022/03/13 00:51:09;;;;;;;80.03;28.77;;;;;;;-1.22;48.54;101242.84;4192171;28;20243;-65
2022/03/13 00:53:37;;;;;;;85.33;30.50;;;;;;;-1.22;48.32;101248.06;4196160;28;20253;-64
2022/03/13 00:56:04;;;;;;;89.50;32.00;;;;;;;-1.25;49.27;101247.31;4195386;28;22037;-65
2022/03/13 00:58:30;;;;;;;91.13;31.57;;;;;;;-1.27;49.43;101244.75;4187347;28;20230;-65
2022/03/13 01:00:57;;;;;;;80.43;28.20;;;;;;;-1.40;48.83;101244.31;4196451;28;20272;-63
2022/03/13 01:03:35;;;;;;;91.57;31.73;;;;;;;-1.38;49.05;101250.34;4177363;28;21483;-65
2022/03/13 01:06:04;;;;;;;84.50;30.70;;;;;;;-1.46;49.44;101244.47;4197514;28;20744;-64
2022/03/13 01:08:30;;;;;;;95.57;31.97;;;;;;;-1.47;49.50;101242.78;4199718;28;20308;-64
2022/03/13 01:10:58;;;;;;;85.23;28.53;;;;;;;-1.49;49.40;101242.81;4182188;28;26094;-64
2022/03/13 01:13:25;;;;;;;86.67;29.63;;;;;;;-1.50;49.55;101246.34;4200919;28;20770;-64
2022/03/13 01:16:00;;;;;;;67.30;26.30;;;;;;;-1.52;49.43;101239.47;4202739;28;22196;-66
2022/03/13 01:18:26;;;;;;;72.03;24.10;;;;;;;-1.62;48.58;101244.09;4191409;28;20346;-65
2022/03/13 01:20:53;;;;;;;57.10;20.90;;;;;;;-1.53;48.48;101242.97;4200133;28;20232;-65
2022/03/13 01:23:20;;;;;;;50.10;18.97;;;;;;;-1.67;47.22;101238.16;4205420;28;21921;-66
2022/03/13 01:26:22;;;;;;;58.87;21.83;;;;;;;-1.54;47.17;101241.28;4190055;28;21093;-66
2022/03/13 01:28:59;;;;;;;67.93;24.27;;;;;;;-1.46;47.55;101234.03;4197255;28;21126;-65
2022/03/13 01:31:29;;;;;;;63.57;22.87;;;;;;;-1.44;47.96;101232.25;4191943;28;22278;-64
2022/03/13 01:33:57;;;;;;;57.47;21.80;;;;;;;-1.46;47.41;101234.03;4178144;28;20405;-66
2022/03/13 01:36:23;;;;;;;46.83;18.87;;;;;;;-1.40;46.44;101230.41;4188278;28;20329;-64
2022/03/13 01:38:58;;;;;;;56.70;23.33;;;;;;;-1.43;46.81;101228.72;4189361;28;24812;-65
2022/03/13 01:41:29;;;;;;;53.57;21.50;;;;;;;-1.51;47.32;101228.97;4174686;28;21234;-66
2022/03/13 01:43:57;;;;;;;60.90;21.33;;;;;;;-1.48;47.81;101230.63;4189625;28;20333;-65
2022/03/13 01:46:25;;;;;;;53.43;21.93;;;;;;;-1.56;47.89;101230.03;4194760;28;22169;-66
2022/03/13 01:48:59;;;;;;;55.67;21.50;;;;;;;-1.51;47.76;101235.94;4216359;28;20343;-67
2022/03/13 01:51:26;;;;;;;55.13;21.17;;;;;;;-1.53;47.18;101232.53;4332956;28;23445;-66
2022/03/13 01:53:56;;;;;;;51.70;19.73;;;;;;;-1.53;46.70;101222.09;4199313;28;20275;-65
2022/03/13 01:56:22;;;;;;;60.20;21.10;;;;;;;-1.49;47.07;101219.34;4201272;28;20300;-66
2022/03/13 01:58:58;;;;;;;53.17;21.23;;;;;;;-1.47;47.02;101221.06;4204769;28;20684;-65
2022/03/13 02:01:27;;;;;;;52.33;21.07;;;;;;;-1.56;47.33;101220.44;4182602;28;20825;-67
2022/03/13 02:03:54;;;;;;;61.13;22.97;;;;;;;-1.57;47.22;101225.69;4189326;28;20239;-67
2022/03/13 02:06:26;;;;;;;58.03;22.77;;;;;;;-1.54;47.78;101226.47;4201606;28;20728;-65
2022/03/13 02:08:54;;;;;;;55.07;21.87;;;;;;;-1.62;48.55;101228.44;4200809;28;20297;-65
2022/03/13 02:11:22;;;;;;;60.20;22.40;;;;;;;-1.62;48.57;101232.81;4198696;28;20317;-65
2022/03/13 02:13:51;;;;;;;57.40;22.70;;;;;;;-1.60;49.12;101231.00;4191264;28;20241;-65
2022/03/13 02:16:19;;;;;;;53.10;20.50;;;;;;;-1.73;48.66;101231.41;4184404;28;22862;-65
2022/03/13 02:18:50;;;;;;;53.63;21.73;;;;;;;-1.72;48.51;101233.09;4200113;28;20229;-65
2022/03/13 02:21:18;;;;;;;53.03;21.23;;;;;;;-1.77;49.14;101224.56;4202192;28;20240;-64
2022/03/13 02:23:45;;;;;;;50.50;20.90;;;;;;;-1.74;48.71;101223.59;4199165;28;20236;-65
2022/03/13 02:26:11;;;;;;;55.00;20.17;;;;;;;-1.77;49.01;101229.78;4194100;28;20230;-65
2022/03/13 02:28:42;;;;;;;47.13;19.80;;;;;;;-1.77;48.72;101235.00;4193863;28;20224;-65
2022/03/13 02:31:13;;;;;;;49.07;20.63;;;;;;;-1.73;49.20;101234.00;4191062;28;20443;-65
2022/03/13 02:33:40;;;;;;;52.23;21.03;;;;;;;-1.87;49.49;101228.34;4189233;28;20241;-64
2022/03/13 02:36:21;;;;;;;58.10;23.60;;;;;;;-1.90;50.77;101231.03;4188979;28;23972;-64
2022/03/13 02:38:48;;;;;;;47.73;20.97;;;;;;;-1.89;50.42;101240.59;4201934;28;20232;-64
2022/03/13 02:41:14;;;;;;;41.20;18.50;;;;;;;-1.95;50.02;101236.38;4195203;28;20233;-66
2022/03/13 02:43:41;;;;;;;54.90;20.83;;;;;;;-1.93;49.58;101238.97;4193122;28;20276;-65
2022/03/13 02:46:19;;;;;;;52.53;21.77;;;;;;;-1.92;50.65;101244.16;4213289;28;20276;-64
2022/03/13 02:48:46;;;;;;;53.07;20.57;;;;;;;-2.01;51.39;101231.38;4198699;28;22136;-65
2022/03/13 02:51:13;;;;;;;48.30;20.63;;;;;;;-1.98;50.93;101233.03;4208842;28;20236;-65
2022/03/13 02:53:40;;;;;;;55.23;20.87;;;;;;;-2.06;50.85;101232.38;4205371;28;20245;-65
2022/03/13 02:56:07;;;;;;;48.53;20.20;;;;;;;-1.99;50.33;101226.09;4193041;28;20241;-64
2022/03/13 02:58:34;;;;;;;59.63;21.13;;;;;;;-1.90;50.04;101228.44;4196631;28;21940;-65
2022/03/13 03:01:01;;;;;;;45.03;19.50;;;;;;;-2.03;50.48;101225.34;4187047;28;21805;-65
2022/03/13 03:03:27;;;;;;;48.30;19.43;;;;;;;-1.96;50.05;101221.66;4192069;28;20233;-65
2022/03/13 03:05:54;;;;;;;52.93;19.43;;;;;;;-2.02;51.05;101223.59;4197644;28;20341;-65
2022/03/13 03:08:22;;;;;;;50.10;19.80;;;;;;;-1.92;50.88;101219.78;4191621;28;20266;-65
2022/03/13 03:10:48;;;;;;;49.57;21.40;;;;;;;-1.85;51.71;101216.13;4307380;28;20225;-64
2022/03/13 03:13:16;;;;;;;53.23;20.40;;;;;;;-1.83;51.68;101222.13;4190021;28;20248;-66
2022/03/13 03:15:43;;;;;;;51.60;20.03;;;;;;;-1.86;52.26;101219.63;4193660;28;20229;-65
2022/03/13 03:18:09;;;;;;;53.80;21.03;;;;;;;-1.79;53.31;101220.28;4191724;28;20339;-65
2022/03/13 03:20:37;;;;;;;52.33;20.80;;;;;;;-1.74;53.61;101210.56;4190598;28;20785;-64
2022/03/13 03:23:04;;;;;;;52.53;21.20;;;;;;;-1.70;53.83;101218.25;4192258;28;20995;-64
2022/03/13 03:25:31;;;;;;;50.97;20.03;;;;;;;-1.64;53.06;101218.94;4193886;28;20361;-64
2022/03/13 03:27:58;;;;;;;54.07;20.97;;;;;;;-1.61;53.67;101213.66;4187051;28;21374;-65
2022/03/13 03:30:26;;;;;;;53.93;21.57;;;;;;;-1.59;53.85;101211.84;4183730;28;20238;-64
2022/03/13 03:32:54;;;;;;;50.17;20.77;;;;;;;-1.56;53.52;101209.16;4190539;28;20240;-64
2022/03/13 03:35:22;;;;;;;46.63;20.00;;;;;;;-1.60;53.83;101207.53;4187384;28;20309;-63
2022/03/13 03:37:50;;;;;;;46.27;20.37;;;;;;;-1.54;54.52;101210.81;4179776;28;20244;-65
2022/03/13 03:40:20;;;;;;;52.47;19.90;;;;;;;-1.49;54.21;101215.88;4165315;28;20239;-65
2022/03/13 03:42:50;;;;;;;42.63;19.33;;;;;;;-1.46;54.04;101220.16;4197624;28;20228;-65
2022/03/13 03:45:19;;;;;;;44.60;19.10;;;;;;;-1.45;52.77;101214.00;4188583;28;21763;-64
2022/03/13 03:47:46;;;;;;;50.77;19.43;;;;;;;-1.41;51.38;101210.41;4194789;28;20302;-64
2022/03/13 03:50:13;;;;;;;54.87;18.93;;;;;;;-1.39;48.66;101209.44;4210950;28;20669;-66
2022/03/13 03:52:40;;;;;;;51.43;19.57;;;;;;;-1.32;49.98;101205.72;4185080;28;25165;-65
2022/03/13 03:55:07;;;;;;;47.73;18.67;;;;;;;-1.27;50.39;101213.41;4185897;28;20248;-67
2022/03/13 03:57:34;;;;;;;52.37;19.70;;;;;;;-1.28;48.40;101217.78;4197483;28;20232;-65
2022/03/13 04:00:01;;;;;;;46.73;18.60;;;;;;;-1.17;49.54;101206.13;4193900;28;20231;-65
2022/03/13 04:02:27;;;;;;;51.73;20.53;;;;;;;-1.09;49.02;101201.50;4190592;28;20245;-66
2022/03/13 04:04:54;;;;;;;49.13;19.40;;;;;;;-1.06;48.35;101198.78;4202990;28;20307;-65
2022/03/13 04:07:20;;;;;;;44.90;18.50;;;;;;;-1.02;48.80;101205.63;4182777;28;21683;-65
2022/03/13 04:09:48;;;;;;;46.10;18.73;;;;;;;-1.07;49.09;101203.16;4175988;28;20230;-64
2022/03/13 04:12:15;;;;;;;42.70;19.20;;;;;;;-1.06;50.40;101198.78;4188278;28;20326;-64
2022/03/13 04:14:41;;;;;;;52.33;19.33;;;;;;;-0.99;51.64;101202.91;4193752;28;21819;-65
2022/03/13 04:17:08;;;;;;;60.10;21.40;;;;;;;-1.08;47.44;101211.91;4197011;28;20246;-64
2022/03/13 04:19:35;;;;;;;53.87;20.60;;;;;;;-1.09;49.67;101198.91;4199582;28;20251;-65
2022/03/13 04:22:02;;;;;;;54.80;21.23;;;;;;;-1.16;49.71;101197.41;4220641;28;20301;-64
2022/03/13 04:24:31;;;;;;;56.87;21.43;;;;;;;-1.00;50.58;101195.13;4195424;28;22538;-67
2022/03/13 04:26:58;;;;;;;50.60;19.23;;;;;;;-0.96;50.80;101194.09;4193809;28;20240;-66
2022/03/13 04:29:25;;;;;;;44.97;19.73;;;;;;;-0.87;49.88;101210.34;4201524;28;20283;-65
2022/03/13 04:31:55;;;;;;;50.53;20.63;;;;;;;-0.94;51.01;101210.56;4216990;28;20231;-66
2022/03/13 04:34:22;;;;;;;47.00;19.47;;;;;;;-0.97;51.83;101206.31;4208768;28;20239;-64
2022/03/13 04:36:49;;;;;;;58.07;20.23;;;;;;;-0.92;51.34;101204.38;4195539;28;20241;-64
2022/03/13 04:39:16;;;;;;;50.67;20.90;;;;;;;-0.87;51.07;101205.13;4187174;28;21749;-65
2022/03/13 04:41:43;;;;;;;50.03;19.57;;;;;;;-0.87;50.83;101202.50;4207439;28;22620;-65
2022/03/13 04:44:14;;;;;;;52.60;20.10;;;;;;;-0.79;50.67;101204.00;4189023;28;20477;-65
2022/03/13 04:46:42;;;;;;;48.97;19.67;;;;;;;-0.81;51.68;101206.66;4207532;28;20292;-66
2022/03/13 04:49:09;;;;;;;53.57;20.37;;;;;;;-0.90;50.01;101212.19;4193049;28;20299;-63
2022/03/13 04:51:39;;;;;;;50.10;20.83;;;;;;;-1.00;50.74;101205.59;4201952;28;20415;-64
2022/03/13 04:54:07;;;;;;;61.43;22.83;;;;;;;-1.06;50.21;101217.06;4206922;28;20269;-65
2022/03/13 04:56:34;;;;;;;51.57;21.23;;;;;;;-0.97;50.14;101211.53;4185776;28;20233;-64
2022/03/13 04:59:00;;;;;;;51.23;21.13;;;;;;;-1.04;50.35;101217.03;4196497;28;20284;-65
2022/03/13 05:01:27;;;;;;;52.73;21.60;;;;;;;-1.02;50.34;101207.38;4194522;28;20230;-63
2022/03/13 05:03:54;;;;;;;55.03;21.43;;;;;;;-1.13;50.57;101216.41;4207309;28;20285;-64
2022/03/13 05:06:20;;;;;;;54.03;20.13;;;;;;;-0.94;50.72;101214.03;4210621;28;20267;-64
2022/03/13 05:08:51;;;;;;;55.20;21.23;;;;;;;-0.96;50.26;101205.44;4230672;28;23826;-65
2022/03/13 05:11:17;;;;;;;52.00;22.13;;;;;;;-0.90;49.94;101205.19;4221437;28;20240;-65
2022/03/13 05:13:44;;;;;;;55.03;21.67;;;;;;;-0.91;50.81;101206.13;4200183;28;21539;-65
2022/03/13 05:16:12;;;;;;;54.10;21.27;;;;;;;-0.96;51.53;101213.25;4201310;28;20233;-66
2022/03/13 05:18:39;;;;;;;51.77;21.70;;;;;;;-0.97;51.79;101216.75;4205583;28;20297;-65
2022/03/13 05:21:06;;;;;;;55.27;21.53;;;;;;;-1.02;51.08;101221.28;4227476;28;20400;-64
2022/03/13 05:23:32;;;;;;;56.77;22.13;;;;;;;-1.06;51.83;101217.91;4192751;28;26086;-66
2022/03/13 05:25:59;;;;;;;57.43;22.70;;;;;;;-1.11;52.65;101216.38;4218324;28;20240;-66
2022/03/13 05:28:26;;;;;;;53.17;22.17;;;;;;;-1.13;52.83;101226.88;4216396;28;20228;-65
2022/03/13 05:30:52;;;;;;;56.70;21.67;;;;;;;-1.33;51.35;101230.16;4189056;28;21910;-66
2022/03/13 05:33:19;;;;;;;61.17;23.50;;;;;;;-1.31;50.69;101228.34;4215550;28;21736;-65
2022/03/13 05:35:46;;;;;;;57.10;22.30;;;;;;;-1.32;50.91;101225.78;4196488;28;20255;-64
2022/03/13 05:38:13;;;;;;;56.80;23.00;;;;;;;-1.34;51.06;101227.56;4209353;28;20663;-65
2022/03/13 05:40:40;;;;;;;56.03;23.57;;;;;;;-1.31;50.82;101233.56;4205089;28;21114;-66
2022/03/13 05:43:07;;;;;;;62.03;24.70;;;;;;;-1.35;50.60;101231.09;4224876;28;26337;-64
2022/03/13 05:45:35;;;;;;;66.80;25.43;;;;;;;-1.24;51.01;101231.63;4202015;28;21973;-65
2022/03/13 05:48:07;;;;;;;64.20;24.20;;;;;;;-1.09;50.03;101238.06;4202891;28;20295;-66
2022/03/13 05:50:34;;;;;;;62.50;24.03;;;;;;;-0.97;49.55;101228.97;4188478;28;20267;-67
2022/03/13 05:53:00;;;;;;;67.93;25.77;;;;;;;-1.05;50.38;101229.25;4219338;28;20239;-67
2022/03/13 05:55:27;;;;;;;64.93;23.83;;;;;;;-1.11;49.92;101234.66;4192800;28;20467;-66
2022/03/13 05:57:54;;;;;;;69.00;24.70;;;;;;;-1.11;50.86;101245.09;4198165;28;22250;-67
2022/03/13 06:00:23;;;;;;;67.57;24.83;;;;;;;-1.10;51.01;101238.97;4207487;28;25818;-65
2022/03/13 06:02:50;;;;;;;63.83;25.30;;;;;;;-0.93;49.93;101236.66;4215998;28;20537;-65
2022/03/13 06:05:17;;;;;;;78.77;26.40;;;;;;;-0.97;50.20;101236.81;4201034;28;20288;-65
2022/03/13 06:07:46;;;;;;;75.23;27.30;;;;;;;-0.73;48.96;101237.72;4181988;28;21182;-66
2022/03/13 06:10:19;;;;;;;68.00;25.47;;;;;;;-0.57;48.48;101241.50;4201020;28;20248;-66
2022/03/13 06:12:46;;;;;;;74.43;25.97;;;;;;;-0.54;48.70;101244.03;4212841;28;20248;-68
2022/03/13 06:15:14;;;;;;;74.17;26.20;;;;;;;-0.61;48.76;101245.13;4205539;28;23186;-66
2022/03/13 06:17:46;;;;;;;68.83;25.60;;;;;;;-0.54;48.08;101249.28;4190850;28;20236;-67
2022/03/13 06:20:15;;;;;;;66.33;25.43;;;;;;;-0.31;46.22;101247.56;4201770;28;20232;-68
2022/03/13 06:22:43;;;;;;;71.07;26.27;;;;;;;-0.09;45.59;101250.28;4210926;28;20237;-67
2022/03/13 06:25:11;;;;;;;59.67;24.17;;;;;;;0.08;45.15;101249.66;4208805;28;20232;-67
2022/03/13 06:27:38;;;;;;;63.37;26.13;;;;;;;0.07;45.12;101253.16;4191998;28;20275;-68
2022/03/13 06:30:13;;;;;;;68.87;25.53;;;;;;;0.11;44.75;101254.75;4216100;28;20242;-68
2022/03/13 06:32:45;;;;;;;67.77;25.40;;;;;;;0.28;43.95;101261.97;4213135;28;20418;-67
2022/03/13 06:35:13;;;;;;;65.40;27.03;;;;;;;0.30;44.06;101268.84;4194446;28;20381;-66
2022/03/13 06:37:40;;;;;;;72.43;27.83;;;;;;;0.40;43.23;101264.13;4230834;28;20232;-66
2022/03/13 06:40:13;;;;;;;75.33;27.40;;;;;;;0.47;43.05;101262.97;4209449;28;20232;-66
2022/03/13 06:42:40;;;;;;;73.73;27.67;;;;;;;0.63;42.62;101274.56;4199140;28;20241;-70
2022/03/13 06:45:10;;;;;;;67.87;27.20;;;;;;;0.69;42.37;101270.81;4205248;28;21190;-67
2022/03/13 06:47:41;;;;;;;68.23;27.20;;;;;;;0.86;41.99;101277.16;4209846;28;20240;-68
2022/03/13 06:50:08;;;;;;;73.23;28.43;;;;;;;0.92;42.05;101275.13;4233531;28;20858;-68
2022/03/13 06:52:35;;;;;;;66.03;27.07;;;;;;;1.02;41.18;101273.00;4186065;28;20228;-67
2022/03/13 06:55:04;;;;;;;75.67;27.30;;;;;;;1.18;40.68;101286.31;4208215;28;20322;-67
2022/03/13 06:57:31;;;;;;;67.87;27.03;;;;;;;1.20;40.40;101287.13;4202275;28;20426;-70
2022/03/13 06:59:58;;;;;;;65.97;26.87;;;;;;;1.36;39.90;101282.06;4205893;28;20332;-68
2022/03/13 07:02:24;;;;;;;74.87;28.00;;;;;;;1.44;40.01;101279.97;4214706;28;20232;-69
2022/03/13 07:04:51;;;;;;;66.53;26.00;;;;;;;1.43;39.01;101289.63;4222306;28;21834;-69
2022/03/13 07:07:18;;;;;;;70.23;26.13;;;;;;;1.56;38.83;101274.19;4205193;28;21821;-69
2022/03/13 07:09:45;;;;;;;67.13;25.83;;;;;;;1.74;39.00;101284.81;4213849;28;20311;-69
2022/03/13 07:12:12;;;;;;;68.10;26.93;;;;;;;1.75;38.42;101283.88;4213657;28;20376;-68
2022/03/13 07:14:45;;;;;;;67.63;26.03;;;;;;;1.81;38.37;101284.47;4221679;28;22386;-66
2022/03/13 07:17:11;;;;;;;66.83;25.20;;;;;;;1.99;37.06;101280.19;4204926;28;20318;-68
2022/03/13 07:19:40;;;;;;;63.37;24.40;;;;;;;2.16;36.35;101291.69;4207636;28;23837;-69
2022/03/13 07:22:09;;;;;;;61.33;25.27;;;;;;;2.23;35.44;101290.50;4215032;28;20252;-67
2022/03/13 07:24:36;;;;;;;61.03;24.03;;;;;;;2.32;35.30;101290.91;4235942;28;20802;-67
2022/03/13 07:27:03;;;;;;;57.57;24.03;;;;;;;2.46;34.49;101295.53;4215961;28;20252;-67
2022/03/13 07:29:29;;;;;;;60.73;23.83;;;;;;;2.79;34.46;101299.25;4237336;28;20230;-67
2022/03/13 07:31:56;;;;;;;62.80;25.23;;;;;;;3.22;33.43;101295.38;4222220;28;21770;-68
2022/03/13 07:34:24;;;;;;;65.00;24.80;;;;;;;3.76;32.25;101296.09;4207103;28;20340;-68
2022/03/13 07:36:53;;;;;;;61.30;25.67;;;;;;;5.86;30.16;101311.59;4224196;28;20237;-68
2022/03/13 07:39:24;;;;;;;69.27;25.80;;;;;;;9.30;24.82;101322.81;4234754;28;22224;-67
2022/03/13 07:41:52;;;;;;;60.17;26.67;;;;;;;10.64;21.91;101328.47;4206482;28;21368;-67
2022/03/13 07:44:19;;;;;;;64.40;27.20;;;;;;;11.96;20.61;101342.38;4239927;28;20239;-69
2022/03/13 07:46:46;;;;;;;70.43;28.47;;;;;;;12.80;19.45;101343.94;4224288;28;20240;-69
2022/03/13 07:49:13;;;;;;;70.40;29.00;;;;;;;14.61;17.47;101353.06;4242313;28;21238;-68
2022/03/13 07:51:39;;;;;;;69.23;30.57;;;;;;;15.92;16.63;101351.66;4204628;28;20339;-68
2022/03/13 07:54:06;;;;;;;71.50;30.93;;;;;;;17.97;14.33;101369.25;4217140;28;21584;-70
2022/03/13 07:56:33;;;;;;;67.90;30.70;;;;;;;17.13;14.43;101364.97;4208378;28;20725;-72
2022/03/13 07:58:59;;;;;;;65.47;30.77;;;;;;;16.33;14.86;101358.09;4216433;28;20240;-68
2022/03/13 08:01:26;;;;;;;65.93;30.67;;;;;;;14.85;16.15;101349.84;4246924;28;20612;-69
2022/03/13 08:03:53;;;;;;;66.53;29.50;;;;;;;15.49;15.63;101359.50;4226114;28;20970;-68
2022/03/13 08:06:19;;;;;;;69.77;31.57;;;;;;;16.48;15.14;101363.72;4205451;28;20233;-68
2022/03/13 08:08:46;;;;;;;60.13;30.07;;;;;;;17.63;13.98;101366.69;4212799;28;20223;-68
2022/03/13 08:11:13;;;;;;;72.30;31.40;;;;;;;18.10;13.59;101379.50;4209134;28;20412;-68
2022/03/13 08:13:40;;;;;;;66.07;31.10;;;;;;;18.13;13.57;101379.16;4243838;28;20240;-70
2022/03/13 08:16:06;;;;;;;70.53;31.90;;;;;;;18.81;13.09;101375.06;4211405;28;20242;-69
2022/03/13 08:18:34;;;;;;;62.50;30.30;;;;;;;18.52;13.17;101373.81;4207237;28;25493;-76
2022/03/13 08:21:01;;;;;;;66.23;31.13;;;;;;;17.52;13.98;101367.88;4235112;28;20760;-72
2022/03/13 08:23:27;;;;;;;65.23;32.60;;;;;;;16.82;14.71;101373.63;4207458;28;20227;-70
2022/03/13 08:25:55;;;;;;;66.13;31.67;;;;;;;17.81;13.87;101380.03;4207467;28;20303;-70
2022/03/13 08:28:21;;;;;;;62.93;30.07;;;;;;;19.17;12.96;101382.63;4218752;28;20229;-66
2022/03/13 08:30:51;;;;;;;62.83;30.27;;;;;;;19.48;12.63;101377.19;4230607;28;20239;-69
2022/03/13 08:33:17;;;;;;;63.10;30.23;;;;;;;18.63;13.21;101371.75;4204410;28;20710;-67
2022/03/13 08:35:44;;;;;;;67.87;29.03;;;;;;;20.05;12.42;101381.28;4220614;28;20228;-69
2022/03/13 08:38:11;;;;;;;55.43;27.77;;;;;;;21.43;11.22;101386.00;4203187;28;20539;-68
2022/03/13 08:40:38;;;;;;;56.03;27.33;;;;;;;22.99;10.65;101379.56;4189971;28;20664;-68
2022/03/13 08:43:05;;;;;;;46.33;24.87;;;;;;;24.43;9.30;101392.59;4226219;28;20232;-67
2022/03/13 08:45:32;;;;;;;49.17;26.50;;;;;;;24.25;9.25;101395.97;4206176;28;20450;-69
2022/03/13 08:47:59;;;;;;;53.40;27.80;;;;;;;21.96;10.44;101382.06;4222760;28;21040;-72
2022/03/13 08:50:26;;;;;;;51.23;27.80;;;;;;;21.01;11.39;101379.47;4225830;28;20284;-73
2022/03/13 08:52:56;;;;;;;54.13;28.13;;;;;;;19.53;12.68;101364.00;4270033;28;22181;-69
2022/03/13 08:55:25;;;;;;;44.07;22.13;;;;;;;16.98;14.60;101359.41;4255091;28;25575;-69
2022/03/13 08:57:51;;;;;;;44.13;23.10;;;;;;;14.59;17.44;101344.34;4233867;28;20268;-70
2022/03/13 09:00:18;;;;;;;42.97;22.03;;;;;;;14.04;17.99;101350.44;4212513;28;20277;-69
2022/03/13 09:02:45;;;;;;;43.13;21.87;;;;;;;13.14;18.82;101343.59;4243444;28;20510;-69
2022/03/13 09:05:12;;;;;;;43.77;20.97;;;;;;;12.25;20.65;101334.50;4220296;28;21356;-70
2022/03/13 09:07:42;;;;;;;46.37;20.93;;;;;;;11.91;20.52;101330.38;4243698;28;20235;-68
2022/03/13 09:10:09;;;;;;;41.10;18.80;;;;;;;11.28;22.08;101325.84;4222144;28;20239;-68
2022/03/13 09:12:35;;;;;;;40.87;19.43;;;;;;;10.94;22.60;101323.31;4233884;28;20741;-70
2022/03/13 09:15:04;;;;;;;38.83;18.17;;;;;;;11.21;22.30;101332.66;4216889;28;20268;-69
2022/03/13 09:17:30;;;;;;;35.47;17.77;;;;;;;11.07;22.87;101339.09;4219411;28;20244;-68
2022/03/13 09:19:58;;;;;;;38.70;19.10;;;;;;;10.45;23.22;101329.94;4209472;28;20831;-70
2022/03/13 09:22:30;;;;;;;40.63;19.10;;;;;;;10.35;23.89;101328.97;4216968;28;20286;-69
2022/03/13 09:24:58;;;;;;;44.17;20.80;;;;;;;10.63;23.93;101332.06;4234891;28;20232;-69
2022/03/13 09:27:29;;;;;;;45.97;19.43;;;;;;;10.34;23.15;101328.09;4200801;28;20235;-69
2022/03/13 09:29:57;;;;;;;39.00;19.10;;;;;;;10.00;24.61;101324.56;4238780;28;20320;-70
2022/03/13 09:32:25;;;;;;;42.20;19.73;;;;;;;10.12;24.16;101328.94;4219029;28;20296;-70
2022/03/13 09:34:54;;;;;;;35.90;18.87;;;;;;;10.50;24.26;101333.06;4209640;28;21273;-69
2022/03/13 09:37:21;;;;;;;37.17;17.33;;;;;;;10.76;24.27;101332.78;4240079;28;21166;-69
2022/03/13 09:40:10;;;;;;;37.57;18.07;;;;;;;10.35;24.91;101337.78;4204926;28;20395;-68
2022/03/13 09:42:37;;;;;;;40.50;19.07;;;;;;;10.07;24.83;101324.94;4217275;28;20312;-68
2022/03/13 09:45:06;;;;;;;38.37;19.57;;;;;;;9.79;25.01;101331.56;4206142;28;22213;-74
2022/03/13 09:47:34;;;;;;;42.33;19.87;;;;;;;9.98;25.53;101329.16;4226879;28;21825;-67
2022/03/13 09:50:00;;;;;;;41.07;19.00;;;;;;;10.09;25.13;101330.97;4197118;28;20899;-67
2022/03/13 09:52:27;;;;;;;40.07;18.53;;;;;;;9.79;26.01;101331.56;4208190;28;20240;-71
2022/03/13 09:54:54;;;;;;;40.13;16.87;;;;;;;9.61;26.32;101333.78;4201540;28;20248;-70
2022/03/13 09:57:20;;;;;;;30.23;14.90;;;;;;;8.81;27.64;101319.34;4204356;28;20302;-70
2022/03/13 09:59:49;;;;;;;30.50;15.63;;;;;;;8.45;28.59;101313.06;4218476;28;20323;-71
2022/03/13 10:02:16;;;;;;;40.73;16.40;;;;;;;8.06;29.66;101313.22;4181060;28;22388;-70
2022/03/13 10:04:43;;;;;;;32.63;16.03;;;;;;;7.93;29.52;101310.56;4205351;28;20238;-72
2022/03/13 10:07:14;;;;;;;39.37;17.43;;;;;;;8.03;29.98;101314.28;4204710;28;20245;-70
2022/03/13 10:09:43;;;;;;;38.47;18.83;;;;;;;7.86;30.52;101306.63;4180649;28;22192;-70
2022/03/13 10:12:12;;;;;;;35.30;17.47;;;;;;;7.68;30.55;101308.72;4183479;28;20412;-70
2022/03/13 10:15:03;;;;;;;39.90;17.87;;;;;;;7.73;30.85;101306.63;4210207;28;21699;-70
2022/03/13 10:17:35;;;;;;;39.53;17.97;;;;;;;7.93;31.14;101310.56;4204006;28;20333;-70
2022/03/13 10:20:17;;;;;;;37.23;18.00;;;;;;;7.55;31.42;101314.03;4175851;28;20688;-70
2022/03/13 10:22:49;;;;;;;43.47;18.53;;;;;;;7.97;31.07;101312.88;4197999;28;20238;-69
2022/03/13 10:25:36;;;;;;;38.97;18.57;;;;;;;8.24;30.44;101319.84;4176311;28;21282;-70
2022/03/13 10:28:31;;;;;;;43.73;19.33;;;;;;;8.43;29.89;101309.69;4182707;28;22704;-70
2022/03/13 10:30:57;;;;;;;45.07;19.50;;;;;;;8.53;29.84;101309.03;4177528;28;20340;-68
2022/03/13 10:33:47;;;;;;;43.87;19.43;;;;;;;8.43;30.17;101312.34;4191383;28;20593;-69
2022/03/13 10:36:31;;;;;;;43.20;19.10;;;;;;;8.30;30.76;101308.81;4164734;28;20239;-71
2022/03/13 10:39:00;;;;;;;42.33;18.57;;;;;;;8.35;30.87;101301.38;4175945;28;21724;-69
2022/03/13 10:41:45;;;;;;;37.63;16.93;;;;;;;8.22;30.70;101301.41;4176837;28;20233;-69
2022/03/13 10:44:20;;;;;;;40.60;17.37;;;;;;;7.94;30.86;101297.19;4183726;28;20235;-68
2022/03/13 10:46:56;;;;;;;35.50;17.07;;;;;;;8.19;31.36;101295.47;4177120;28;21212;-69
2022/03/13 10:49:36;;;;;;;38.53;17.40;;;;;;;8.51;31.19;101298.50;4169550;28;20649;-67
2022/03/13 10:52:34;;;;;;;39.97;17.37;;;;;;;8.74;31.27;101303.97;4169826;28;25722;-69
2022/03/13 10:55:18;;;;;;;36.77;17.47;;;;;;;9.09;30.72;101296.06;4183141;28;20245;-68
2022/03/13 10:57:50;;;;;;;32.57;15.03;;;;;;;9.31;30.26;101289.97;4183359;28;20291;-70
2022/03/13 11:00:17;;;;;;;39.13;16.40;;;;;;;9.42;30.73;101291.84;4193330;28;21798;-68
2022/03/13 11:02:43;;;;;;;31.23;14.60;;;;;;;9.39;30.83;101290.25;4195744;28;20402;-70
2022/03/13 11:05:10;;;;;;;32.83;14.10;;;;;;;9.41;30.83;101291.00;4164303;28;20393;-68
2022/03/13 11:07:37;;;;;;;28.77;14.47;;;;;;;9.43;30.35;101290.88;4184111;28;20245;-70
2022/03/13 11:10:07;;;;;;;29.67;13.77;;;;;;;9.01;30.94;101285.16;4199874;28;20240;-69
2022/03/13 11:12:34;;;;;;;27.83;13.17;;;;;;;8.98;31.08;101294.19;4175377;28;20234;-71
2022/03/13 11:15:02;;;;;;;27.57;12.47;;;;;;;8.85;31.38;101283.66;4192171;28;20282;-68
2022/03/13 11:17:30;;;;;;;26.87;13.43;;;;;;;9.00;31.67;101280.81;4170775;28;20625;-68
2022/03/13 11:19:58;;;;;;;24.50;12.53;;;;;;;9.17;31.04;101277.75;4206436;28;23603;-69